sensor_id;sensor_type;location;lat;lon;timestamp;P1;durP1;ratioP1;P2;durP2;ratioP2
20531;SDS011;10424;52.102;8.084;2023-12-20T00:01:22;22.98;;;7.63;;
20531;SDS011;10424;52.102;8.084;2023-12-20T00:03:49;19.85;;;7.18;;
20531;SDS011;10424;52.102;8.084;2023-12-20T00:06:17;18.92;;;7.53;;
20531;SDS011;10424;52.102;8.084;2023-12-20T00:08:44;18.88;;;7.38;;
20531;SDS011;10424;52.102;8.084;2023-12-20T00:11:11;23.00;;;7.35;;
20531;SDS011;10424;52.102;8.084;2023-12-20T00:13:38;16.77;;;7.03;;
20531;SDS011;10424;52.102;8.084;2023-12-20T00:16:07;22.02;;;6.15;;
20531;SDS011;10424;52.102;8.084;2023-12-20T00:18:35;15.25;;;6.03;;
20531;SDS011;10424;52.102;8.084;2023-12-20T00:21:02;15.82;;;5.68;;
20531;SDS011;10424;52.102;8.084;2023-12-20T00:23:29;16.55;;;5.55;;
20531;SDS011;10424;52.102;8.084;2023-12-20T00:25:56;14.00;;;5.70;;
20531;SDS011;10424;52.102;8.084;2023-12-20T00:28:24;17.80;;;5.00;;
20531;SDS011;10424;52.102;8.084;2023-12-20T00:30:51;16.27;;;5.43;;
20531;SDS011;10424;52.102;8.084;2023-12-20T00:33:20;14.23;;;5.40;;
20531;SDS011;10424;52.102;8.084;2023-12-20T00:35:55;14.80;;;5.15;;
20531;SDS011;10424;52.102;8.084;2023-12-20T00:38:22;13.23;;;4.30;;
20531;SDS011;10424;52.102;8.084;2023-12-20T00:40:49;16.13;;;4.72;;
20531;SDS011;10424;52.102;8.084;2023-12-20T00:43:17;15.93;;;4.57;;
20531;SDS011;10424;52.102;8.084;2023-12-20T00:45:44;12.52;;;4.45;;
20531;SDS011;10424;52.102;8.084;2023-12-20T00:48:12;12.75;;;3.97;;
20531;SDS011;10424;52.102;8.084;2023-12-20T00:50:40;12.35;;;4.60;;
20531;SDS011;10424;52.102;8.084;2023-12-20T00:53:08;14.82;;;4.25;;
20531;SDS011;10424;52.102;8.084;2023-12-20T00:55:35;14.50;;;4.88;;
20531;SDS011;10424;52.102;8.084;2023-12-20T00:58:05;13.95;;;4.53;;
20531;SDS011;10424;52.102;8.084;2023-12-20T01:00:33;15.43;;;4.72;;
20531;SDS011;10424;52.102;8.084;2023-12-20T01:03:00;12.70;;;4.88;;
20531;SDS011;10424;52.102;8.084;2023-12-20T01:05:27;10.40;;;4.75;;
20531;SDS011;10424;52.102;8.084;2023-12-20T01:07:56;14.73;;;4.68;;
20531;SDS011;10424;52.102;8.084;2023-12-20T01:10:23;10.50;;;4.85;;
20531;SDS011;10424;52.102;8.084;2023-12-20T01:12:53;14.15;;;4.78;;
20531;SDS011;10424;52.102;8.084;2023-12-20T01:15:20;13.73;;;4.70;;
20531;SDS011;10424;52.102;8.084;2023-12-20T01:17:48;11.10;;;4.80;;
20531;SDS011;10424;52.102;8.084;2023-12-20T01:20:16;12.63;;;4.55;;
20531;SDS011;10424;52.102;8.084;2023-12-20T01:22:45;11.50;;;4.70;;
20531;SDS011;10424;52.102;8.084;2023-12-20T01:25:14;12.07;;;4.95;;
20531;SDS011;10424;52.102;8.084;2023-12-20T01:27:41;11.82;;;4.55;;
20531;SDS011;10424;52.102;8.084;2023-12-20T01:30:08;12.55;;;4.20;;
20531;SDS011;10424;52.102;8.084;2023-12-20T01:32:36;14.38;;;4.32;;
20531;SDS011;10424;52.102;8.084;2023-12-20T01:35:03;13.23;;;4.07;;
20531;SDS011;10424;52.102;8.084;2023-12-20T01:37:31;16.55;;;4.68;;
20531;SDS011;10424;52.102;8.084;2023-12-20T01:39:59;15.63;;;4.65;;
20531;SDS011;10424;52.102;8.084;2023-12-20T01:42:27;15.43;;;4.28;;
20531;SDS011;10424;52.102;8.084;2023-12-20T01:44:54;17.00;;;4.32;;
20531;SDS011;10424;52.102;8.084;2023-12-20T01:47:22;16.23;;;4.35;;
20531;SDS011;10424;52.102;8.084;2023-12-20T01:49:49;13.98;;;4.18;;
20531;SDS011;10424;52.102;8.084;2023-12-20T01:52:17;15.07;;;4.10;;
20531;SDS011;10424;52.102;8.084;2023-12-20T01:54:45;14.80;;;3.83;;
20531;SDS011;10424;52.102;8.084;2023-12-20T01:57:12;15.43;;;4.18;;
20531;SDS011;10424;52.102;8.084;2023-12-20T01:59:41;10.52;;;3.78;;
20531;SDS011;10424;52.102;8.084;2023-12-20T02:02:08;17.95;;;3.78;;
20531;SDS011;10424;52.102;8.084;2023-12-20T02:04:37;14.55;;;3.78;;
20531;SDS011;10424;52.102;8.084;2023-12-20T02:07:04;16.92;;;4.10;;
20531;SDS011;10424;52.102;8.084;2023-12-20T02:09:32;11.23;;;3.90;;
20531;SDS011;10424;52.102;8.084;2023-12-20T02:12:00;17.35;;;4.18;;
20531;SDS011;10424;52.102;8.084;2023-12-20T02:14:27;17.95;;;4.07;;
20531;SDS011;10424;52.102;8.084;2023-12-20T02:16:56;14.32;;;3.83;;
20531;SDS011;10424;52.102;8.084;2023-12-20T02:19:23;12.68;;;3.58;;
20531;SDS011;10424;52.102;8.084;2023-12-20T02:21:52;18.23;;;3.70;;
20531;SDS011;10424;52.102;8.084;2023-12-20T02:24:31;22.70;;;3.72;;
20531;SDS011;10424;52.102;8.084;2023-12-20T02:26:58;13.88;;;3.58;;
20531;SDS011;10424;52.102;8.084;2023-12-20T02:29:26;12.95;;;3.40;;
20531;SDS011;10424;52.102;8.084;2023-12-20T02:31:53;13.80;;;3.53;;
20531;SDS011;10424;52.102;8.084;2023-12-20T02:34:21;9.07;;;3.42;;
20531;SDS011;10424;52.102;8.084;2023-12-20T02:36:48;18.40;;;4.28;;
20531;SDS011;10424;52.102;8.084;2023-12-20T02:39:17;15.75;;;4.15;;
20531;SDS011;10424;52.102;8.084;2023-12-20T02:41:44;16.35;;;4.50;;
20531;SDS011;10424;52.102;8.084;2023-12-20T02:44:12;22.38;;;4.82;;
20531;SDS011;10424;52.102;8.084;2023-12-20T02:46:39;12.50;;;3.55;;
20531;SDS011;10424;52.102;8.084;2023-12-20T02:49:07;15.35;;;5.30;;
20531;SDS011;10424;52.102;8.084;2023-12-20T02:51:34;19.00;;;4.60;;
20531;SDS011;10424;52.102;8.084;2023-12-20T02:54:03;14.20;;;4.78;;
20531;SDS011;10424;52.102;8.084;2023-12-20T02:56:50;15.55;;;5.43;;
20531;SDS011;10424;52.102;8.084;2023-12-20T02:59:33;22.50;;;5.60;;
20531;SDS011;10424;52.102;8.084;2023-12-20T03:02:00;15.40;;;4.75;;
20531;SDS011;10424;52.102;8.084;2023-12-20T03:04:27;16.27;;;5.40;;
20531;SDS011;10424;52.102;8.084;2023-12-20T03:06:55;22.85;;;6.00;;
20531;SDS011;10424;52.102;8.084;2023-12-20T03:09:22;19.23;;;5.22;;
20531;SDS011;10424;52.102;8.084;2023-12-20T03:11:51;17.52;;;5.32;;
20531;SDS011;10424;52.102;8.084;2023-12-20T03:14:18;13.68;;;5.15;;
20531;SDS011;10424;52.102;8.084;2023-12-20T03:16:46;18.70;;;5.53;;
20531;SDS011;10424;52.102;8.084;2023-12-20T03:19:14;21.08;;;5.68;;
20531;SDS011;10424;52.102;8.084;2023-12-20T03:21:42;17.83;;;6.15;;
20531;SDS011;10424;52.102;8.084;2023-12-20T03:24:09;16.95;;;6.15;;
20531;SDS011;10424;52.102;8.084;2023-12-20T03:26:36;21.25;;;5.68;;
20531;SDS011;10424;52.102;8.084;2023-12-20T03:29:05;22.08;;;5.43;;
20531;SDS011;10424;52.102;8.084;2023-12-20T03:31:32;20.15;;;6.63;;
20531;SDS011;10424;52.102;8.084;2023-12-20T03:33:59;17.83;;;6.10;;
20531;SDS011;10424;52.102;8.084;2023-12-20T03:36:27;16.15;;;5.65;;
20531;SDS011;10424;52.102;8.084;2023-12-20T03:38:54;23.10;;;6.10;;
20531;SDS011;10424;52.102;8.084;2023-12-20T03:41:30;17.70;;;5.25;;
20531;SDS011;10424;52.102;8.084;2023-12-20T03:43:57;22.33;;;5.43;;
20531;SDS011;10424;52.102;8.084;2023-12-20T03:46:26;19.80;;;5.80;;
20531;SDS011;10424;52.102;8.084;2023-12-20T03:48:53;22.88;;;5.50;;
20531;SDS011;10424;52.102;8.084;2023-12-20T03:51:20;13.82;;;5.38;;
20531;SDS011;10424;52.102;8.084;2023-12-20T03:53:48;14.27;;;4.60;;
20531;SDS011;10424;52.102;8.084;2023-12-20T03:56:15;15.70;;;5.10;;
20531;SDS011;10424;52.102;8.084;2023-12-20T03:58:42;16.15;;;5.43;;
20531;SDS011;10424;52.102;8.084;2023-12-20T04:01:09;14.27;;;4.97;;
20531;SDS011;10424;52.102;8.084;2023-12-20T04:03:39;17.75;;;5.25;;
20531;SDS011;10424;52.102;8.084;2023-12-20T04:06:06;19.02;;;5.07;;
20531;SDS011;10424;52.102;8.084;2023-12-20T04:08:33;15.38;;;3.22;;
20531;SDS011;10424;52.102;8.084;2023-12-20T04:11:00;13.23;;;4.90;;
20531;SDS011;10424;52.102;8.084;2023-12-20T04:13:28;16.77;;;5.03;;
20531;SDS011;10424;52.102;8.084;2023-12-20T04:15:55;18.67;;;4.80;;
20531;SDS011;10424;52.102;8.084;2023-12-20T04:18:22;19.23;;;4.95;;
20531;SDS011;10424;52.102;8.084;2023-12-20T04:20:51;21.88;;;5.38;;
20531;SDS011;10424;52.102;8.084;2023-12-20T04:23:18;16.40;;;4.35;;
20531;SDS011;10424;52.102;8.084;2023-12-20T04:25:45;18.73;;;4.80;;
20531;SDS011;10424;52.102;8.084;2023-12-20T04:28:13;18.02;;;4.20;;
20531;SDS011;10424;52.102;8.084;2023-12-20T04:30:41;17.77;;;4.25;;
20531;SDS011;10424;52.102;8.084;2023-12-20T04:33:08;11.88;;;3.80;;
20531;SDS011;10424;52.102;8.084;2023-12-20T04:35:35;18.10;;;4.22;;
20531;SDS011;10424;52.102;8.084;2023-12-20T04:38:03;18.30;;;4.25;;
20531;SDS011;10424;52.102;8.084;2023-12-20T04:40:30;12.98;;;4.03;;
20531;SDS011;10424;52.102;8.084;2023-12-20T04:42:57;15.40;;;3.80;;
20531;SDS011;10424;52.102;8.084;2023-12-20T04:45:25;15.60;;;4.60;;
20531;SDS011;10424;52.102;8.084;2023-12-20T04:47:52;14.35;;;4.32;;
20531;SDS011;10424;52.102;8.084;2023-12-20T04:50:19;16.02;;;4.30;;
20531;SDS011;10424;52.102;8.084;2023-12-20T04:52:46;18.38;;;4.22;;
20531;SDS011;10424;52.102;8.084;2023-12-20T04:55:15;19.42;;;4.55;;
20531;SDS011;10424;52.102;8.084;2023-12-20T04:57:42;22.20;;;5.03;;
20531;SDS011;10424;52.102;8.084;2023-12-20T05:00:10;16.35;;;4.65;;
20531;SDS011;10424;52.102;8.084;2023-12-20T05:02:39;15.10;;;4.15;;
20531;SDS011;10424;52.102;8.084;2023-12-20T05:05:06;17.85;;;4.72;;
20531;SDS011;10424;52.102;8.084;2023-12-20T05:07:34;19.70;;;4.47;;
20531;SDS011;10424;52.102;8.084;2023-12-20T05:10:02;20.85;;;4.85;;
20531;SDS011;10424;52.102;8.084;2023-12-20T05:12:31;11.00;;;3.60;;
20531;SDS011;10424;52.102;8.084;2023-12-20T05:14:58;17.52;;;4.60;;
20531;SDS011;10424;52.102;8.084;2023-12-20T05:17:25;16.75;;;3.83;;
20531;SDS011;10424;52.102;8.084;2023-12-20T05:19:52;14.95;;;4.45;;
20531;SDS011;10424;52.102;8.084;2023-12-20T05:22:20;17.75;;;4.50;;
20531;SDS011;10424;52.102;8.084;2023-12-20T05:24:47;11.60;;;4.53;;
20531;SDS011;10424;52.102;8.084;2023-12-20T05:27:14;16.02;;;4.55;;
20531;SDS011;10424;52.102;8.084;2023-12-20T05:29:43;14.68;;;5.03;;
20531;SDS011;10424;52.102;8.084;2023-12-20T05:32:10;21.50;;;5.00;;
20531;SDS011;10424;52.102;8.084;2023-12-20T05:34:37;20.60;;;5.63;;
20531;SDS011;10424;52.102;8.084;2023-12-20T05:37:05;16.38;;;4.55;;
20531;SDS011;10424;52.102;8.084;2023-12-20T05:39:32;17.20;;;5.13;;
20531;SDS011;10424;52.102;8.084;2023-12-20T05:41:59;17.20;;;5.20;;
20531;SDS011;10424;52.102;8.084;2023-12-20T05:44:26;19.33;;;5.20;;
20531;SDS011;10424;52.102;8.084;2023-12-20T05:46:55;9.73;;;3.40;;
20531;SDS011;10424;52.102;8.084;2023-12-20T05:49:22;13.02;;;4.70;;
20531;SDS011;10424;52.102;8.084;2023-12-20T05:51:49;17.75;;;5.05;;
20531;SDS011;10424;52.102;8.084;2023-12-20T05:54:17;20.50;;;5.40;;
20531;SDS011;10424;52.102;8.084;2023-12-20T05:56:44;19.00;;;5.47;;
20531;SDS011;10424;52.102;8.084;2023-12-20T05:59:11;19.33;;;5.05;;
20531;SDS011;10424;52.102;8.084;2023-12-20T06:01:39;14.68;;;5.32;;
20531;SDS011;10424;52.102;8.084;2023-12-20T06:04:07;18.60;;;5.03;;
20531;SDS011;10424;52.102;8.084;2023-12-20T06:06:34;17.77;;;5.30;;
20531;SDS011;10424;52.102;8.084;2023-12-20T06:09:07;17.13;;;5.15;;
20531;SDS011;10424;52.102;8.084;2023-12-20T06:11:34;20.90;;;5.45;;
20531;SDS011;10424;52.102;8.084;2023-12-20T06:14:01;14.55;;;4.93;;
20531;SDS011;10424;52.102;8.084;2023-12-20T06:16:29;15.23;;;5.90;;
20531;SDS011;10424;52.102;8.084;2023-12-20T06:18:56;14.27;;;4.70;;
20531;SDS011;10424;52.102;8.084;2023-12-20T06:21:24;17.95;;;5.78;;
20531;SDS011;10424;52.102;8.084;2023-12-20T06:23:52;14.60;;;5.40;;
20531;SDS011;10424;52.102;8.084;2023-12-20T06:26:20;16.23;;;5.40;;
20531;SDS011;10424;52.102;8.084;2023-12-20T06:28:47;12.13;;;4.55;;
20531;SDS011;10424;52.102;8.084;2023-12-20T06:31:14;14.35;;;5.63;;
20531;SDS011;10424;52.102;8.084;2023-12-20T06:33:42;13.70;;;4.97;;
20531;SDS011;10424;52.102;8.084;2023-12-20T06:36:10;19.38;;;5.80;;
20531;SDS011;10424;52.102;8.084;2023-12-20T06:38:39;21.73;;;5.47;;
20531;SDS011;10424;52.102;8.084;2023-12-20T06:41:07;15.43;;;5.20;;
20531;SDS011;10424;52.102;8.084;2023-12-20T06:43:34;20.17;;;5.93;;
20531;SDS011;10424;52.102;8.084;2023-12-20T06:46:02;20.52;;;7.10;;
20531;SDS011;10424;52.102;8.084;2023-12-20T06:48:29;20.02;;;5.80;;
20531;SDS011;10424;52.102;8.084;2023-12-20T06:50:56;21.42;;;6.18;;
20531;SDS011;10424;52.102;8.084;2023-12-20T06:53:24;12.90;;;4.85;;
20531;SDS011;10424;52.102;8.084;2023-12-20T06:55:52;14.90;;;5.72;;
20531;SDS011;10424;52.102;8.084;2023-12-20T06:58:21;18.15;;;5.15;;
20531;SDS011;10424;52.102;8.084;2023-12-20T07:00:48;15.43;;;4.95;;
20531;SDS011;10424;52.102;8.084;2023-12-20T07:03:16;11.80;;;4.18;;
20531;SDS011;10424;52.102;8.084;2023-12-20T07:05:43;15.10;;;4.88;;
20531;SDS011;10424;52.102;8.084;2023-12-20T07:08:11;16.98;;;3.97;;
20531;SDS011;10424;52.102;8.084;2023-12-20T07:10:39;19.27;;;5.15;;
20531;SDS011;10424;52.102;8.084;2023-12-20T07:13:08;22.48;;;5.15;;
20531;SDS011;10424;52.102;8.084;2023-12-20T07:15:35;14.52;;;4.90;;
20531;SDS011;10424;52.102;8.084;2023-12-20T07:18:03;12.63;;;4.32;;
20531;SDS011;10424;52.102;8.084;2023-12-20T07:20:31;20.85;;;5.10;;
20531;SDS011;10424;52.102;8.084;2023-12-20T07:22:59;14.98;;;4.88;;
20531;SDS011;10424;52.102;8.084;2023-12-20T07:25:26;11.02;;;3.47;;
20531;SDS011;10424;52.102;8.084;2023-12-20T07:27:53;17.92;;;4.47;;
20531;SDS011;10424;52.102;8.084;2023-12-20T07:30:22;13.82;;;4.30;;
20531;SDS011;10424;52.102;8.084;2023-12-20T07:32:49;7.72;;;3.22;;
20531;SDS011;10424;52.102;8.084;2023-12-20T07:35:17;12.05;;;3.55;;
20531;SDS011;10424;52.102;8.084;2023-12-20T07:37:44;15.50;;;5.05;;
20531;SDS011;10424;52.102;8.084;2023-12-20T07:40:12;21.10;;;5.13;;
20531;SDS011;10424;52.102;8.084;2023-12-20T07:42:42;15.52;;;4.10;;
20531;SDS011;10424;52.102;8.084;2023-12-20T07:45:09;19.05;;;5.53;;
20531;SDS011;10424;52.102;8.084;2023-12-20T07:47:38;14.48;;;3.78;;
20531;SDS011;10424;52.102;8.084;2023-12-20T07:50:06;12.57;;;3.30;;
20531;SDS011;10424;52.102;8.084;2023-12-20T07:52:33;10.20;;;3.53;;
20531;SDS011;10424;52.102;8.084;2023-12-20T07:55:00;13.65;;;3.17;;
20531;SDS011;10424;52.102;8.084;2023-12-20T07:57:29;10.77;;;3.90;;
20531;SDS011;10424;52.102;8.084;2023-12-20T07:59:56;14.68;;;4.20;;
20531;SDS011;10424;52.102;8.084;2023-12-20T08:02:23;10.40;;;3.22;;
20531;SDS011;10424;52.102;8.084;2023-12-20T08:04:52;10.73;;;3.55;;
20531;SDS011;10424;52.102;8.084;2023-12-20T08:07:19;12.73;;;3.50;;
20531;SDS011;10424;52.102;8.084;2023-12-20T08:09:47;16.30;;;4.70;;
20531;SDS011;10424;52.102;8.084;2023-12-20T08:12:14;10.00;;;3.97;;
20531;SDS011;10424;52.102;8.084;2023-12-20T08:14:42;19.92;;;3.72;;
20531;SDS011;10424;52.102;8.084;2023-12-20T08:17:09;18.58;;;3.67;;
20531;SDS011;10424;52.102;8.084;2023-12-20T08:19:37;18.88;;;3.90;;
20531;SDS011;10424;52.102;8.084;2023-12-20T08:22:06;11.95;;;3.63;;
20531;SDS011;10424;52.102;8.084;2023-12-20T08:24:33;16.50;;;3.88;;
20531;SDS011;10424;52.102;8.084;2023-12-20T08:27:00;16.63;;;3.72;;
20531;SDS011;10424;52.102;8.084;2023-12-20T08:29:28;12.95;;;3.95;;
20531;SDS011;10424;52.102;8.084;2023-12-20T08:31:55;15.02;;;3.88;;
20531;SDS011;10424;52.102;8.084;2023-12-20T08:34:23;14.45;;;3.15;;
20531;SDS011;10424;52.102;8.084;2023-12-20T08:36:50;18.48;;;4.68;;
20531;SDS011;10424;52.102;8.084;2023-12-20T08:39:19;17.70;;;4.28;;
20531;SDS011;10424;52.102;8.084;2023-12-20T08:41:46;9.52;;;3.05;;
20531;SDS011;10424;52.102;8.084;2023-12-20T08:44:14;14.30;;;4.07;;
20531;SDS011;10424;52.102;8.084;2023-12-20T08:46:41;15.63;;;4.25;;
20531;SDS011;10424;52.102;8.084;2023-12-20T08:49:08;18.88;;;4.72;;
20531;SDS011;10424;52.102;8.084;2023-12-20T08:51:36;17.05;;;4.95;;
20531;SDS011;10424;52.102;8.084;2023-12-20T08:54:05;10.93;;;3.35;;
20531;SDS011;10424;52.102;8.084;2023-12-20T08:56:35;12.05;;;3.85;;
20531;SDS011;10424;52.102;8.084;2023-12-20T08:59:02;13.80;;;4.60;;
20531;SDS011;10424;52.102;8.084;2023-12-20T09:01:30;18.40;;;4.18;;
20531;SDS011;10424;52.102;8.084;2023-12-20T09:03:57;9.85;;;3.05;;
20531;SDS011;10424;52.102;8.084;2023-12-20T09:06:25;17.27;;;5.03;;
20531;SDS011;10424;52.102;8.084;2023-12-20T09:08:52;13.82;;;4.80;;
20531;SDS011;10424;52.102;8.084;2023-12-20T09:11:19;16.75;;;5.00;;
20531;SDS011;10424;52.102;8.084;2023-12-20T09:13:48;13.25;;;4.15;;
20531;SDS011;10424;52.102;8.084;2023-12-20T09:16:15;14.15;;;5.53;;
20531;SDS011;10424;52.102;8.084;2023-12-20T09:18:43;17.05;;;4.10;;
20531;SDS011;10424;52.102;8.084;2023-12-20T09:21:10;16.58;;;4.30;;
20531;SDS011;10424;52.102;8.084;2023-12-20T09:23:37;15.90;;;4.80;;
20531;SDS011;10424;52.102;8.084;2023-12-20T09:26:05;20.65;;;4.78;;
20531;SDS011;10424;52.102;8.084;2023-12-20T09:28:32;20.35;;;6.05;;
20531;SDS011;10424;52.102;8.084;2023-12-20T09:31:03;12.75;;;4.60;;
20531;SDS011;10424;52.102;8.084;2023-12-20T09:33:31;16.33;;;5.05;;
20531;SDS011;10424;52.102;8.084;2023-12-20T09:35:59;15.75;;;5.45;;
20531;SDS011;10424;52.102;8.084;2023-12-20T09:38:26;10.63;;;4.50;;
20531;SDS011;10424;52.102;8.084;2023-12-20T09:40:53;15.90;;;5.28;;
20531;SDS011;10424;52.102;8.084;2023-12-20T09:43:21;15.98;;;5.20;;
20531;SDS011;10424;52.102;8.084;2023-12-20T09:45:53;10.88;;;3.85;;
20531;SDS011;10424;52.102;8.084;2023-12-20T09:48:22;12.35;;;4.43;;
20531;SDS011;10424;52.102;8.084;2023-12-20T09:50:50;15.05;;;3.92;;
20531;SDS011;10424;52.102;8.084;2023-12-20T09:53:17;14.57;;;4.97;;
20531;SDS011;10424;52.102;8.084;2023-12-20T09:55:48;15.75;;;4.72;;
20531;SDS011;10424;52.102;8.084;2023-12-20T09:58:15;14.88;;;4.25;;
20531;SDS011;10424;52.102;8.084;2023-12-20T10:00:43;14.73;;;4.68;;
20531;SDS011;10424;52.102;8.084;2023-12-20T10:03:10;14.05;;;4.40;;
20531;SDS011;10424;52.102;8.084;2023-12-20T10:05:39;11.30;;;4.07;;
20531;SDS011;10424;52.102;8.084;2023-12-20T10:08:10;12.20;;;3.85;;
20531;SDS011;10424;52.102;8.084;2023-12-20T10:10:37;18.83;;;4.97;;
20531;SDS011;10424;52.102;8.084;2023-12-20T10:13:05;9.45;;;3.83;;
20531;SDS011;10424;52.102;8.084;2023-12-20T10:15:33;15.63;;;4.10;;
20531;SDS011;10424;52.102;8.084;2023-12-20T10:18:01;17.67;;;4.78;;
20531;SDS011;10424;52.102;8.084;2023-12-20T10:20:28;16.77;;;4.93;;
20531;SDS011;10424;52.102;8.084;2023-12-20T10:22:57;13.57;;;4.47;;
20531;SDS011;10424;52.102;8.084;2023-12-20T10:25:25;12.65;;;5.10;;
20531;SDS011;10424;52.102;8.084;2023-12-20T10:30:34;12.18;;;4.13;;
20531;SDS011;10424;52.102;8.084;2023-12-20T10:33:04;17.25;;;5.00;;
20531;SDS011;10424;52.102;8.084;2023-12-20T10:35:32;13.18;;;4.93;;
20531;SDS011;10424;52.102;8.084;2023-12-20T10:38:02;10.65;;;4.13;;
20531;SDS011;10424;52.102;8.084;2023-12-20T10:40:30;12.32;;;3.47;;
20531;SDS011;10424;52.102;8.084;2023-12-20T10:42:58;14.38;;;4.68;;
20531;SDS011;10424;52.102;8.084;2023-12-20T10:45:26;12.00;;;3.97;;
20531;SDS011;10424;52.102;8.084;2023-12-20T10:47:53;16.30;;;4.25;;
20531;SDS011;10424;52.102;8.084;2023-12-20T10:50:21;14.00;;;4.05;;
20531;SDS011;10424;52.102;8.084;2023-12-20T10:52:48;13.40;;;4.47;;
20531;SDS011;10424;52.102;8.084;2023-12-20T10:55:22;13.25;;;4.45;;
20531;SDS011;10424;52.102;8.084;2023-12-20T10:57:49;15.55;;;4.25;;
20531;SDS011;10424;52.102;8.084;2023-12-20T11:00:17;14.30;;;4.00;;
20531;SDS011;10424;52.102;8.084;2023-12-20T11:02:45;12.45;;;3.55;;
20531;SDS011;10424;52.102;8.084;2023-12-20T11:05:15;13.35;;;3.60;;
20531;SDS011;10424;52.102;8.084;2023-12-20T11:07:47;12.13;;;4.03;;
20531;SDS011;10424;52.102;8.084;2023-12-20T11:10:16;18.80;;;4.05;;
20531;SDS011;10424;52.102;8.084;2023-12-20T11:12:47;16.95;;;4.70;;
20531;SDS011;10424;52.102;8.084;2023-12-20T11:15:16;9.38;;;3.33;;
20531;SDS011;10424;52.102;8.084;2023-12-20T11:17:44;15.15;;;4.15;;
20531;SDS011;10424;52.102;8.084;2023-12-20T11:20:12;10.80;;;2.97;;
20531;SDS011;10424;52.102;8.084;2023-12-20T11:22:39;12.82;;;3.65;;
20531;SDS011;10424;52.102;8.084;2023-12-20T11:25:18;12.85;;;3.85;;
20531;SDS011;10424;52.102;8.084;2023-12-20T11:28:06;15.57;;;4.10;;
20531;SDS011;10424;52.102;8.084;2023-12-20T11:30:40;11.93;;;3.83;;
20531;SDS011;10424;52.102;8.084;2023-12-20T11:33:07;15.35;;;3.80;;
20531;SDS011;10424;52.102;8.084;2023-12-20T11:35:35;14.95;;;3.83;;
20531;SDS011;10424;52.102;8.084;2023-12-20T11:38:03;9.60;;;3.70;;
20531;SDS011;10424;52.102;8.084;2023-12-20T11:40:31;9.35;;;3.20;;
20531;SDS011;10424;52.102;8.084;2023-12-20T11:43:02;12.05;;;3.50;;
20531;SDS011;10424;52.102;8.084;2023-12-20T11:45:29;12.15;;;2.85;;
20531;SDS011;10424;52.102;8.084;2023-12-20T11:47:57;8.65;;;3.50;;
20531;SDS011;10424;52.102;8.084;2023-12-20T11:50:24;7.82;;;2.65;;
20531;SDS011;10424;52.102;8.084;2023-12-20T11:52:52;9.32;;;2.95;;
20531;SDS011;10424;52.102;8.084;2023-12-20T11:55:20;8.15;;;3.05;;
20531;SDS011;10424;52.102;8.084;2023-12-20T11:57:49;7.80;;;2.95;;
20531;SDS011;10424;52.102;8.084;2023-12-20T12:00:18;9.75;;;3.10;;
20531;SDS011;10424;52.102;8.084;2023-12-20T12:02:54;8.90;;;3.20;;
20531;SDS011;10424;52.102;8.084;2023-12-20T12:05:22;12.60;;;3.45;;
20531;SDS011;10424;52.102;8.084;2023-12-20T12:07:50;10.13;;;2.70;;
20531;SDS011;10424;52.102;8.084;2023-12-20T12:10:17;7.45;;;2.85;;
20531;SDS011;10424;52.102;8.084;2023-12-20T12:12:44;12.15;;;3.25;;
20531;SDS011;10424;52.102;8.084;2023-12-20T12:15:11;5.60;;;2.17;;
20531;SDS011;10424;52.102;8.084;2023-12-20T12:17:40;11.20;;;3.30;;
20531;SDS011;10424;52.102;8.084;2023-12-20T12:20:07;8.98;;;3.33;;
20531;SDS011;10424;52.102;8.084;2023-12-20T12:22:35;11.68;;;3.55;;
20531;SDS011;10424;52.102;8.084;2023-12-20T12:25:09;9.10;;;3.20;;
20531;SDS011;10424;52.102;8.084;2023-12-20T12:27:38;14.05;;;3.75;;
20531;SDS011;10424;52.102;8.084;2023-12-20T12:30:06;13.70;;;3.85;;
20531;SDS011;10424;52.102;8.084;2023-12-20T12:32:34;12.50;;;3.50;;
20531;SDS011;10424;52.102;8.084;2023-12-20T12:35:04;10.77;;;3.97;;
20531;SDS011;10424;52.102;8.084;2023-12-20T12:37:33;16.98;;;3.88;;
20531;SDS011;10424;52.102;8.084;2023-12-20T12:40:01;9.85;;;3.63;;
20531;SDS011;10424;52.102;8.084;2023-12-20T12:42:31;14.38;;;3.80;;
20531;SDS011;10424;52.102;8.084;2023-12-20T12:44:58;10.23;;;3.17;;
20531;SDS011;10424;52.102;8.084;2023-12-20T12:47:26;11.00;;;3.28;;
20531;SDS011;10424;52.102;8.084;2023-12-20T12:49:53;11.23;;;3.08;;
20531;SDS011;10424;52.102;8.084;2023-12-20T12:52:22;7.88;;;2.45;;
20531;SDS011;10424;52.102;8.084;2023-12-20T12:54:49;4.55;;;2.28;;
20531;SDS011;10424;52.102;8.084;2023-12-20T12:57:16;7.47;;;1.95;;
20531;SDS011;10424;52.102;8.084;2023-12-20T12:59:44;6.15;;;2.00;;
20531;SDS011;10424;52.102;8.084;2023-12-20T13:02:12;8.02;;;2.25;;
20531;SDS011;10424;52.102;8.084;2023-12-20T13:04:39;8.32;;;2.00;;
20531;SDS011;10424;52.102;8.084;2023-12-20T13:07:07;5.32;;;1.75;;
20531;SDS011;10424;52.102;8.084;2023-12-20T13:09:38;5.03;;;1.42;;
20531;SDS011;10424;52.102;8.084;2023-12-20T13:12:05;8.35;;;2.03;;
20531;SDS011;10424;52.102;8.084;2023-12-20T13:14:33;6.78;;;1.73;;
20531;SDS011;10424;52.102;8.084;2023-12-20T13:17:02;7.47;;;1.30;;
20531;SDS011;10424;52.102;8.084;2023-12-20T13:19:29;4.60;;;1.40;;
20531;SDS011;10424;52.102;8.084;2023-12-20T13:21:57;7.55;;;1.52;;
20531;SDS011;10424;52.102;8.084;2023-12-20T13:24:24;7.75;;;1.25;;
20531;SDS011;10424;52.102;8.084;2023-12-20T13:26:53;4.05;;;1.30;;
20531;SDS011;10424;52.102;8.084;2023-12-20T13:29:20;4.07;;;1.40;;
20531;SDS011;10424;52.102;8.084;2023-12-20T13:31:48;5.30;;;1.30;;
20531;SDS011;10424;52.102;8.084;2023-12-20T13:34:15;5.97;;;1.45;;
20531;SDS011;10424;52.102;8.084;2023-12-20T13:36:43;7.07;;;1.60;;
20531;SDS011;10424;52.102;8.084;2023-12-20T13:39:12;5.38;;;1.58;;
20531;SDS011;10424;52.102;8.084;2023-12-20T13:41:40;7.75;;;1.40;;
20531;SDS011;10424;52.102;8.084;2023-12-20T13:44:08;5.63;;;1.50;;
20531;SDS011;10424;52.102;8.084;2023-12-20T13:46:37;4.28;;;1.35;;
20531;SDS011;10424;52.102;8.084;2023-12-20T13:49:04;9.35;;;1.83;;
20531;SDS011;10424;52.102;8.084;2023-12-20T13:51:32;9.23;;;1.65;;
20531;SDS011;10424;52.102;8.084;2023-12-20T13:53:59;7.70;;;1.42;;
20531;SDS011;10424;52.102;8.084;2023-12-20T13:56:26;5.32;;;1.50;;
20531;SDS011;10424;52.102;8.084;2023-12-20T13:58:53;7.28;;;1.65;;
20531;SDS011;10424;52.102;8.084;2023-12-20T14:01:23;4.40;;;1.40;;
20531;SDS011;10424;52.102;8.084;2023-12-20T14:03:51;4.80;;;1.40;;
20531;SDS011;10424;52.102;8.084;2023-12-20T14:06:18;6.15;;;1.75;;
20531;SDS011;10424;52.102;8.084;2023-12-20T14:08:46;6.30;;;1.55;;
20531;SDS011;10424;52.102;8.084;2023-12-20T14:11:13;6.72;;;1.50;;
20531;SDS011;10424;52.102;8.084;2023-12-20T14:13:40;4.55;;;1.77;;
20531;SDS011;10424;52.102;8.084;2023-12-20T14:16:08;8.10;;;1.85;;
20531;SDS011;10424;52.102;8.084;2023-12-20T14:18:37;8.10;;;1.50;;
20531;SDS011;10424;52.102;8.084;2023-12-20T14:21:05;5.43;;;1.60;;
20531;SDS011;10424;52.102;8.084;2023-12-20T14:23:32;9.93;;;1.67;;
20531;SDS011;10424;52.102;8.084;2023-12-20T14:26:00;5.65;;;1.38;;
20531;SDS011;10424;52.102;8.084;2023-12-20T14:28:27;6.30;;;1.60;;
20531;SDS011;10424;52.102;8.084;2023-12-20T14:30:54;5.97;;;1.38;;
20531;SDS011;10424;52.102;8.084;2023-12-20T14:33:22;6.63;;;1.60;;
20531;SDS011;10424;52.102;8.084;2023-12-20T14:35:51;4.65;;;1.58;;
20531;SDS011;10424;52.102;8.084;2023-12-20T14:38:18;5.60;;;1.30;;
20531;SDS011;10424;52.102;8.084;2023-12-20T14:40:46;6.90;;;1.50;;
20531;SDS011;10424;52.102;8.084;2023-12-20T14:43:13;6.18;;;1.52;;